sensor_id;sensor_type;location;lat;lon;timestamp;P1;durP1;ratioP1;P2;durP2;ratioP2
62058;SDS011;48017;51.064;7.014;2022-12-18T00:00:40;5.70;;;3.38;;
62058;SDS011;48017;51.064;7.014;2022-12-18T00:03:06;6.47;;;2.88;;
62058;SDS011;48017;51.064;7.014;2022-12-18T00:05:31;4.75;;;3.03;;
62058;SDS011;48017;51.064;7.014;2022-12-18T00:07:56;5.53;;;3.47;;
62058;SDS011;48017;51.064;7.014;2022-12-18T00:10:21;3.20;;;2.13;;
62058;SDS011;48017;51.064;7.014;2022-12-18T00:12:47;3.28;;;2.05;;
62058;SDS011;48017;51.064;7.014;2022-12-18T00:15:12;5.10;;;2.92;;
62058;SDS011;48017;51.064;7.014;2022-12-18T00:17:37;3.60;;;2.72;;
62058;SDS011;48017;51.064;7.014;2022-12-18T00:20:02;3.90;;;2.35;;
62058;SDS011;48017;51.064;7.014;2022-12-18T00:22:28;4.28;;;2.63;;
62058;SDS011;48017;51.064;7.014;2022-12-18T00:24:53;4.28;;;2.72;;
62058;SDS011;48017;51.064;7.014;2022-12-18T00:27:19;5.45;;;3.45;;
62058;SDS011;48017;51.064;7.014;2022-12-18T00:29:44;4.82;;;2.90;;
62058;SDS011;48017;51.064;7.014;2022-12-18T00:32:09;3.63;;;2.03;;
62058;SDS011;48017;51.064;7.014;2022-12-18T00:34:34;3.75;;;2.33;;
62058;SDS011;48017;51.064;7.014;2022-12-18T00:36:59;3.53;;;2.20;;
62058;SDS011;48017;51.064;7.014;2022-12-18T00:39:25;5.88;;;2.72;;
62058;SDS011;48017;51.064;7.014;2022-12-18T00:41:50;7.68;;;3.47;;
62058;SDS011;48017;51.064;7.014;2022-12-18T00:44:34;6.95;;;3.28;;
62058;SDS011;48017;51.064;7.014;2022-12-18T00:46:59;4.10;;;2.95;;
62058;SDS011;48017;51.064;7.014;2022-12-18T00:49:24;4.07;;;2.00;;
62058;SDS011;48017;51.064;7.014;2022-12-18T00:51:50;6.07;;;3.20;;
62058;SDS011;48017;51.064;7.014;2022-12-18T00:54:15;4.90;;;2.58;;
62058;SDS011;48017;51.064;7.014;2022-12-18T00:56:40;4.25;;;2.95;;
62058;SDS011;48017;51.064;7.014;2022-12-18T00:59:06;4.03;;;2.38;;
62058;SDS011;48017;51.064;7.014;2022-12-18T01:01:31;2.60;;;1.80;;
62058;SDS011;48017;51.064;7.014;2022-12-18T01:03:57;5.63;;;3.85;;
62058;SDS011;48017;51.064;7.014;2022-12-18T01:06:22;6.25;;;3.65;;
62058;SDS011;48017;51.064;7.014;2022-12-18T01:08:48;4.22;;;3.15;;
62058;SDS011;48017;51.064;7.014;2022-12-18T01:11:14;3.95;;;3.03;;
62058;SDS011;48017;51.064;7.014;2022-12-18T01:13:40;4.03;;;2.67;;
62058;SDS011;48017;51.064;7.014;2022-12-18T01:16:05;4.60;;;2.15;;
62058;SDS011;48017;51.064;7.014;2022-12-18T01:18:31;6.22;;;2.78;;
62058;SDS011;48017;51.064;7.014;2022-12-18T01:20:56;3.92;;;2.38;;
62058;SDS011;48017;51.064;7.014;2022-12-18T01:23:21;4.85;;;2.10;;
62058;SDS011;48017;51.064;7.014;2022-12-18T01:25:47;3.90;;;2.53;;
62058;SDS011;48017;51.064;7.014;2022-12-18T01:28:12;4.72;;;2.88;;
62058;SDS011;48017;51.064;7.014;2022-12-18T01:30:37;5.32;;;2.70;;
62058;SDS011;48017;51.064;7.014;2022-12-18T01:33:04;3.67;;;2.50;;
62058;SDS011;48017;51.064;7.014;2022-12-18T01:35:29;5.88;;;2.35;;
62058;SDS011;48017;51.064;7.014;2022-12-18T01:37:55;4.47;;;2.72;;
62058;SDS011;48017;51.064;7.014;2022-12-18T01:40:20;6.20;;;2.58;;
62058;SDS011;48017;51.064;7.014;2022-12-18T01:42:49;5.93;;;3.08;;
62058;SDS011;48017;51.064;7.014;2022-12-18T01:47:46;7.47;;;4.00;;
62058;SDS011;48017;51.064;7.014;2022-12-18T01:50:32;6.20;;;3.47;;
62058;SDS011;48017;51.064;7.014;2022-12-18T01:53:21;5.85;;;3.10;;
62058;SDS011;48017;51.064;7.014;2022-12-18T01:55:48;4.55;;;2.65;;
62058;SDS011;48017;51.064;7.014;2022-12-18T01:58:15;6.35;;;2.58;;
62058;SDS011;48017;51.064;7.014;2022-12-18T02:00:41;4.15;;;3.22;;
62058;SDS011;48017;51.064;7.014;2022-12-18T02:03:06;4.15;;;3.00;;
62058;SDS011;48017;51.064;7.014;2022-12-18T02:13:00;4.15;;;2.58;;
62058;SDS011;48017;51.064;7.014;2022-12-18T02:18:45;4.15;;;2.25;;
62058;SDS011;48017;51.064;7.014;2022-12-18T02:23:52;5.95;;;3.03;;
62058;SDS011;48017;51.064;7.014;2022-12-18T02:26:30;4.45;;;2.58;;
62058;SDS011;48017;51.064;7.014;2022-12-18T02:29:00;3.83;;;2.35;;
62058;SDS011;48017;51.064;7.014;2022-12-18T02:31:28;3.50;;;2.38;;
62058;SDS011;48017;51.064;7.014;2022-12-18T02:33:56;4.35;;;2.58;;
62058;SDS011;48017;51.064;7.014;2022-12-18T02:36:22;4.07;;;2.67;;
62058;SDS011;48017;51.064;7.014;2022-12-18T02:38:49;2.88;;;2.28;;
62058;SDS011;48017;51.064;7.014;2022-12-18T02:41:15;4.47;;;2.58;;
62058;SDS011;48017;51.064;7.014;2022-12-18T02:43:45;2.42;;;1.67;;
62058;SDS011;48017;51.064;7.014;2022-12-18T02:46:24;3.75;;;2.20;;
62058;SDS011;48017;51.064;7.014;2022-12-18T02:48:50;3.55;;;2.30;;
62058;SDS011;48017;51.064;7.014;2022-12-18T02:51:19;6.15;;;2.05;;
62058;SDS011;48017;51.064;7.014;2022-12-18T02:53:51;5.85;;;2.72;;
62058;SDS011;48017;51.064;7.014;2022-12-18T02:56:19;4.43;;;2.38;;
62058;SDS011;48017;51.064;7.014;2022-12-18T02:58:52;3.20;;;2.17;;
62058;SDS011;48017;51.064;7.014;2022-12-18T03:01:24;4.57;;;2.67;;
62058;SDS011;48017;51.064;7.014;2022-12-18T03:03:52;5.10;;;2.75;;
62058;SDS011;48017;51.064;7.014;2022-12-18T03:06:33;2.65;;;2.03;;
62058;SDS011;48017;51.064;7.014;2022-12-18T03:09:01;5.60;;;2.85;;
62058;SDS011;48017;51.064;7.014;2022-12-18T03:11:28;3.75;;;2.65;;
62058;SDS011;48017;51.064;7.014;2022-12-18T03:14:15;8.10;;;3.55;;
62058;SDS011;48017;51.064;7.014;2022-12-18T03:16:40;6.00;;;2.83;;
62058;SDS011;48017;51.064;7.014;2022-12-18T03:19:08;4.50;;;2.38;;
62058;SDS011;48017;51.064;7.014;2022-12-18T03:21:37;4.88;;;2.92;;
62058;SDS011;48017;51.064;7.014;2022-12-18T03:26:28;3.05;;;2.20;;
62058;SDS011;48017;51.064;7.014;2022-12-18T03:28:55;6.68;;;3.10;;
62058;SDS011;48017;51.064;7.014;2022-12-18T03:31:22;6.25;;;2.63;;
62058;SDS011;48017;51.064;7.014;2022-12-18T03:33:53;3.58;;;2.45;;
62058;SDS011;48017;51.064;7.014;2022-12-18T03:36:18;3.50;;;1.98;;
62058;SDS011;48017;51.064;7.014;2022-12-18T03:38:44;6.78;;;2.33;;
62058;SDS011;48017;51.064;7.014;2022-12-18T03:41:12;2.70;;;1.80;;
62058;SDS011;48017;51.064;7.014;2022-12-18T03:46:16;3.75;;;2.05;;
62058;SDS011;48017;51.064;7.014;2022-12-18T03:48:44;3.25;;;2.15;;
62058;SDS011;48017;51.064;7.014;2022-12-18T03:51:16;2.72;;;1.92;;
62058;SDS011;48017;51.064;7.014;2022-12-18T03:53:46;3.67;;;2.10;;
62058;SDS011;48017;51.064;7.014;2022-12-18T03:56:14;3.30;;;1.95;;
62058;SDS011;48017;51.064;7.014;2022-12-18T03:58:41;3.20;;;2.20;;
62058;SDS011;48017;51.064;7.014;2022-12-18T04:01:08;6.30;;;2.93;;
62058;SDS011;48017;51.064;7.014;2022-12-18T04:03:34;2.60;;;1.75;;
62058;SDS011;48017;51.064;7.014;2022-12-18T04:06:00;4.13;;;2.40;;
62058;SDS011;48017;51.064;7.014;2022-12-18T04:08:26;3.08;;;2.30;;
62058;SDS011;48017;51.064;7.014;2022-12-18T04:10:52;7.47;;;2.60;;
62058;SDS011;48017;51.064;7.014;2022-12-18T04:13:28;6.35;;;3.13;;
62058;SDS011;48017;51.064;7.014;2022-12-18T04:15:53;6.95;;;3.60;;
62058;SDS011;48017;51.064;7.014;2022-12-18T04:18:19;6.30;;;3.13;;
62058;SDS011;48017;51.064;7.014;2022-12-18T04:20:44;4.47;;;2.45;;
62058;SDS011;48017;51.064;7.014;2022-12-18T04:23:09;3.17;;;1.75;;
62058;SDS011;48017;51.064;7.014;2022-12-18T04:25:35;4.95;;;3.45;;
62058;SDS011;48017;51.064;7.014;2022-12-18T04:28:00;4.43;;;2.42;;
62058;SDS011;48017;51.064;7.014;2022-12-18T04:30:25;2.97;;;2.35;;
62058;SDS011;48017;51.064;7.014;2022-12-18T04:32:50;2.78;;;2.00;;
62058;SDS011;48017;51.064;7.014;2022-12-18T04:35:15;3.10;;;2.75;;
62058;SDS011;48017;51.064;7.014;2022-12-18T04:37:41;4.57;;;3.08;;
62058;SDS011;48017;51.064;7.014;2022-12-18T04:40:06;2.80;;;2.20;;
62058;SDS011;48017;51.064;7.014;2022-12-18T04:42:31;3.15;;;2.35;;
62058;SDS011;48017;51.064;7.014;2022-12-18T04:44:57;4.05;;;2.70;;
62058;SDS011;48017;51.064;7.014;2022-12-18T04:47:22;4.00;;;2.72;;
62058;SDS011;48017;51.064;7.014;2022-12-18T04:49:47;5.65;;;3.38;;
62058;SDS011;48017;51.064;7.014;2022-12-18T04:52:12;5.60;;;3.38;;
62058;SDS011;48017;51.064;7.014;2022-12-18T04:54:38;3.40;;;2.20;;
62058;SDS011;48017;51.064;7.014;2022-12-18T04:57:03;6.57;;;4.05;;
62058;SDS011;48017;51.064;7.014;2022-12-18T04:59:28;5.97;;;3.65;;
62058;SDS011;48017;51.064;7.014;2022-12-18T05:01:53;3.45;;;2.13;;
62058;SDS011;48017;51.064;7.014;2022-12-18T05:04:18;7.30;;;3.97;;
62058;SDS011;48017;51.064;7.014;2022-12-18T05:06:44;7.07;;;3.30;;
62058;SDS011;48017;51.064;7.014;2022-12-18T05:09:09;8.32;;;3.58;;
62058;SDS011;48017;51.064;7.014;2022-12-18T05:11:34;4.47;;;3.28;;
62058;SDS011;48017;51.064;7.014;2022-12-18T05:14:00;5.00;;;3.42;;
62058;SDS011;48017;51.064;7.014;2022-12-18T05:16:26;1.73;;;1.52;;
62058;SDS011;48017;51.064;7.014;2022-12-18T05:18:51;6.20;;;3.72;;
62058;SDS011;48017;51.064;7.014;2022-12-18T05:21:16;3.65;;;2.30;;
62058;SDS011;48017;51.064;7.014;2022-12-18T05:23:41;4.10;;;2.45;;
62058;SDS011;48017;51.064;7.014;2022-12-18T05:26:07;4.32;;;2.03;;
62058;SDS011;48017;51.064;7.014;2022-12-18T05:28:33;4.10;;;3.05;;
62058;SDS011;48017;51.064;7.014;2022-12-18T05:31:00;2.60;;;1.77;;
62058;SDS011;48017;51.064;7.014;2022-12-18T05:33:26;4.38;;;2.85;;
62058;SDS011;48017;51.064;7.014;2022-12-18T05:35:54;4.70;;;2.90;;
62058;SDS011;48017;51.064;7.014;2022-12-18T05:38:20;4.40;;;2.45;;
62058;SDS011;48017;51.064;7.014;2022-12-18T05:40:46;4.00;;;2.53;;
62058;SDS011;48017;51.064;7.014;2022-12-18T05:43:11;2.78;;;1.95;;
62058;SDS011;48017;51.064;7.014;2022-12-18T05:45:40;5.68;;;2.75;;
62058;SDS011;48017;51.064;7.014;2022-12-18T05:48:06;8.85;;;4.10;;
62058;SDS011;48017;51.064;7.014;2022-12-18T05:50:33;7.88;;;3.95;;
62058;SDS011;48017;51.064;7.014;2022-12-18T05:52:59;6.78;;;3.58;;
62058;SDS011;48017;51.064;7.014;2022-12-18T05:55:24;3.85;;;2.63;;
62058;SDS011;48017;51.064;7.014;2022-12-18T05:57:49;5.97;;;3.08;;
62058;SDS011;48017;51.064;7.014;2022-12-18T06:00:14;3.70;;;2.42;;
62058;SDS011;48017;51.064;7.014;2022-12-18T06:02:40;4.55;;;2.10;;
62058;SDS011;48017;51.064;7.014;2022-12-18T06:05:05;7.05;;;2.72;;
62058;SDS011;48017;51.064;7.014;2022-12-18T06:07:31;4.15;;;2.65;;
62058;SDS011;48017;51.064;7.014;2022-12-18T06:09:56;4.05;;;2.58;;
62058;SDS011;48017;51.064;7.014;2022-12-18T06:12:21;4.28;;;3.00;;
62058;SDS011;48017;51.064;7.014;2022-12-18T06:14:46;4.78;;;2.58;;
62058;SDS011;48017;51.064;7.014;2022-12-18T06:17:12;8.05;;;3.47;;
62058;SDS011;48017;51.064;7.014;2022-12-18T06:19:37;4.57;;;3.03;;
62058;SDS011;48017;51.064;7.014;2022-12-18T06:22:02;7.50;;;3.67;;
62058;SDS011;48017;51.064;7.014;2022-12-18T06:24:28;5.60;;;2.28;;
62058;SDS011;48017;51.064;7.014;2022-12-18T06:26:53;3.28;;;2.42;;
62058;SDS011;48017;51.064;7.014;2022-12-18T06:29:18;3.30;;;2.17;;
62058;SDS011;48017;51.064;7.014;2022-12-18T06:31:43;2.47;;;1.88;;
62058;SDS011;48017;51.064;7.014;2022-12-18T06:34:08;4.20;;;2.95;;
62058;SDS011;48017;51.064;7.014;2022-12-18T06:36:34;2.92;;;1.85;;
62058;SDS011;48017;51.064;7.014;2022-12-18T06:38:59;6.32;;;3.40;;
62058;SDS011;48017;51.064;7.014;2022-12-18T06:41:24;6.40;;;2.88;;
62058;SDS011;48017;51.064;7.014;2022-12-18T06:43:49;5.82;;;3.15;;
62058;SDS011;48017;51.064;7.014;2022-12-18T06:46:15;5.35;;;3.13;;
62058;SDS011;48017;51.064;7.014;2022-12-18T06:48:40;2.88;;;1.95;;
62058;SDS011;48017;51.064;7.014;2022-12-18T06:51:05;6.50;;;2.70;;
62058;SDS011;48017;51.064;7.014;2022-12-18T06:53:31;6.10;;;3.35;;
62058;SDS011;48017;51.064;7.014;2022-12-18T06:56:00;6.30;;;3.63;;
62058;SDS011;48017;51.064;7.014;2022-12-18T06:58:26;4.65;;;3.17;;
62058;SDS011;48017;51.064;7.014;2022-12-18T07:00:51;7.85;;;5.05;;
62058;SDS011;48017;51.064;7.014;2022-12-18T07:03:16;7.45;;;3.75;;
62058;SDS011;48017;51.064;7.014;2022-12-18T07:05:42;8.48;;;4.38;;
62058;SDS011;48017;51.064;7.014;2022-12-18T07:08:07;7.45;;;4.25;;
62058;SDS011;48017;51.064;7.014;2022-12-18T07:10:32;4.90;;;3.25;;
62058;SDS011;48017;51.064;7.014;2022-12-18T07:12:57;6.00;;;3.90;;
62058;SDS011;48017;51.064;7.014;2022-12-18T07:15:23;4.38;;;3.03;;
62058;SDS011;48017;51.064;7.014;2022-12-18T07:17:48;5.93;;;3.83;;
62058;SDS011;48017;51.064;7.014;2022-12-18T07:20:14;7.55;;;3.78;;
62058;SDS011;48017;51.064;7.014;2022-12-18T07:22:39;11.40;;;4.13;;
62058;SDS011;48017;51.064;7.014;2022-12-18T07:25:04;8.27;;;3.92;;
62058;SDS011;48017;51.064;7.014;2022-12-18T07:27:30;3.88;;;2.95;;
62058;SDS011;48017;51.064;7.014;2022-12-18T07:29:55;4.68;;;2.88;;
62058;SDS011;48017;51.064;7.014;2022-12-18T07:32:20;4.53;;;3.17;;
62058;SDS011;48017;51.064;7.014;2022-12-18T07:34:45;2.80;;;2.17;;
62058;SDS011;48017;51.064;7.014;2022-12-18T07:37:11;5.15;;;4.03;;
62058;SDS011;48017;51.064;7.014;2022-12-18T07:39:36;5.30;;;3.33;;
62058;SDS011;48017;51.064;7.014;2022-12-18T07:42:01;14.88;;;4.40;;
62058;SDS011;48017;51.064;7.014;2022-12-18T07:44:45;7.00;;;3.88;;
62058;SDS011;48017;51.064;7.014;2022-12-18T07:47:10;4.70;;;2.50;;
62058;SDS011;48017;51.064;7.014;2022-12-18T07:49:35;3.03;;;2.58;;
62058;SDS011;48017;51.064;7.014;2022-12-18T07:52:01;4.25;;;2.95;;
62058;SDS011;48017;51.064;7.014;2022-12-18T07:54:26;5.32;;;3.85;;
62058;SDS011;48017;51.064;7.014;2022-12-18T07:56:52;4.95;;;3.22;;
62058;SDS011;48017;51.064;7.014;2022-12-18T07:59:17;7.82;;;3.45;;
62058;SDS011;48017;51.064;7.014;2022-12-18T08:01:43;10.68;;;5.32;;
62058;SDS011;48017;51.064;7.014;2022-12-18T08:05:25;2.85;;;2.33;;
62058;SDS011;48017;51.064;7.014;2022-12-18T08:07:50;5.53;;;3.30;;
62058;SDS011;48017;51.064;7.014;2022-12-18T08:10:16;4.55;;;2.58;;
62058;SDS011;48017;51.064;7.014;2022-12-18T08:12:42;4.82;;;3.17;;
62058;SDS011;48017;51.064;7.014;2022-12-18T08:15:07;6.88;;;3.00;;
62058;SDS011;48017;51.064;7.014;2022-12-18T08:17:33;4.13;;;2.65;;
62058;SDS011;48017;51.064;7.014;2022-12-18T08:19:59;4.07;;;2.88;;
62058;SDS011;48017;51.064;7.014;2022-12-18T08:22:24;6.18;;;3.58;;
62058;SDS011;48017;51.064;7.014;2022-12-18T08:24:49;4.78;;;3.75;;
62058;SDS011;48017;51.064;7.014;2022-12-18T08:27:15;4.25;;;3.50;;
62058;SDS011;48017;51.064;7.014;2022-12-18T08:29:40;5.32;;;3.40;;
62058;SDS011;48017;51.064;7.014;2022-12-18T08:32:06;7.00;;;4.22;;
62058;SDS011;48017;51.064;7.014;2022-12-18T08:34:31;7.18;;;3.97;;
62058;SDS011;48017;51.064;7.014;2022-12-18T08:36:56;6.63;;;4.25;;
62058;SDS011;48017;51.064;7.014;2022-12-18T08:39:25;6.40;;;4.03;;
62058;SDS011;48017;51.064;7.014;2022-12-18T08:41:51;6.15;;;4.05;;
62058;SDS011;48017;51.064;7.014;2022-12-18T08:44:36;12.52;;;5.38;;
62058;SDS011;48017;51.064;7.014;2022-12-18T08:47:02;13.88;;;6.05;;
62058;SDS011;48017;51.064;7.014;2022-12-18T08:49:27;10.02;;;5.68;;
62058;SDS011;48017;51.064;7.014;2022-12-18T08:51:54;13.45;;;6.25;;
62058;SDS011;48017;51.064;7.014;2022-12-18T08:54:20;9.20;;;5.00;;
62058;SDS011;48017;51.064;7.014;2022-12-18T08:56:45;9.35;;;4.57;;
62058;SDS011;48017;51.064;7.014;2022-12-18T08:59:11;9.38;;;5.28;;
62058;SDS011;48017;51.064;7.014;2022-12-18T09:01:36;6.90;;;4.15;;
62058;SDS011;48017;51.064;7.014;2022-12-18T09:04:01;8.63;;;4.38;;
62058;SDS011;48017;51.064;7.014;2022-12-18T09:06:27;9.23;;;4.00;;
62058;SDS011;48017;51.064;7.014;2022-12-18T09:08:52;7.40;;;4.40;;
62058;SDS011;48017;51.064;7.014;2022-12-18T09:11:21;9.60;;;4.85;;
62058;SDS011;48017;51.064;7.014;2022-12-18T09:13:49;9.05;;;4.40;;
62058;SDS011;48017;51.064;7.014;2022-12-18T09:16:15;7.65;;;4.32;;
62058;SDS011;48017;51.064;7.014;2022-12-18T09:18:41;5.82;;;4.00;;
62058;SDS011;48017;51.064;7.014;2022-12-18T09:21:08;10.18;;;5.10;;
62058;SDS011;48017;51.064;7.014;2022-12-18T09:23:37;9.20;;;4.22;;
62058;SDS011;48017;51.064;7.014;2022-12-18T09:26:02;9.98;;;5.00;;
62058;SDS011;48017;51.064;7.014;2022-12-18T09:28:28;10.55;;;4.68;;
62058;SDS011;48017;51.064;7.014;2022-12-18T09:30:53;7.55;;;4.50;;
62058;SDS011;48017;51.064;7.014;2022-12-18T09:33:18;6.32;;;3.67;;
62058;SDS011;48017;51.064;7.014;2022-12-18T09:35:44;5.80;;;3.65;;
62058;SDS011;48017;51.064;7.014;2022-12-18T09:38:14;5.97;;;3.72;;
62058;SDS011;48017;51.064;7.014;2022-12-18T09:40:55;8.15;;;4.93;;
62058;SDS011;48017;51.064;7.014;2022-12-18T09:43:32;9.70;;;4.97;;
62058;SDS011;48017;51.064;7.014;2022-12-18T09:46:03;6.95;;;3.88;;
62058;SDS011;48017;51.064;7.014;2022-12-18T09:48:33;7.72;;;4.90;;
62058;SDS011;48017;51.064;7.014;2022-12-18T09:51:08;4.57;;;3.22;;
62058;SDS011;48017;51.064;7.014;2022-12-18T09:53:38;9.40;;;4.07;;
62058;SDS011;48017;51.064;7.014;2022-12-18T09:56:06;5.13;;;2.83;;
62058;SDS011;48017;51.064;7.014;2022-12-18T09:58:41;7.85;;;3.90;;
62058;SDS011;48017;51.064;7.014;2022-12-18T10:01:17;6.57;;;3.88;;
62058;SDS011;48017;51.064;7.014;2022-12-18T10:03:47;13.82;;;3.70;;
62058;SDS011;48017;51.064;7.014;2022-12-18T10:06:14;7.68;;;4.18;;
62058;SDS011;48017;51.064;7.014;2022-12-18T10:12:39;10.23;;;4.80;;
62058;SDS011;48017;51.064;7.014;2022-12-18T10:14:50;6.82;;;3.88;;
62058;SDS011;48017;51.064;7.014;2022-12-18T10:17:30;4.80;;;3.03;;
62058;SDS011;48017;51.064;7.014;2022-12-18T10:20:40;8.30;;;4.28;;
62058;SDS011;48017;51.064;7.014;2022-12-18T10:26:12;6.10;;;3.40;;
62058;SDS011;48017;51.064;7.014;2022-12-18T10:28:38;6.43;;;3.38;;
62058;SDS011;48017;51.064;7.014;2022-12-18T10:31:05;5.93;;;3.00;;
62058;SDS011;48017;51.064;7.014;2022-12-18T10:33:32;5.70;;;3.85;;
62058;SDS011;48017;51.064;7.014;2022-12-18T10:35:58;9.18;;;4.90;;
62058;SDS011;48017;51.064;7.014;2022-12-18T10:38:26;9.10;;;4.53;;
62058;SDS011;48017;51.064;7.014;2022-12-18T10:40:58;7.20;;;3.88;;
62058;SDS011;48017;51.064;7.014;2022-12-18T10:43:34;5.72;;;3.25;;
62058;SDS011;48017;51.064;7.014;2022-12-18T10:48:34;7.05;;;3.95;;
62058;SDS011;48017;51.064;7.014;2022-12-18T10:51:05;8.48;;;4.53;;
62058;SDS011;48017;51.064;7.014;2022-12-18T10:53:32;10.32;;;4.40;;
62058;SDS011;48017;51.064;7.014;2022-12-18T10:55:59;10.05;;;3.83;;
62058;SDS011;48017;51.064;7.014;2022-12-18T10:58:30;7.78;;;3.75;;
62058;SDS011;48017;51.064;7.014;2022-12-18T11:03:44;7.78;;;3.90;;
62058;SDS011;48017;51.064;7.014;2022-12-18T11:06:20;7.57;;;4.35;;
62058;SDS011;48017;51.064;7.014;2022-12-18T11:08:59;8.90;;;3.53;;
62058;SDS011;48017;51.064;7.014;2022-12-18T11:11:29;8.27;;;3.90;;
62058;SDS011;48017;51.064;7.014;2022-12-18T11:14:01;7.70;;;4.70;;
62058;SDS011;48017;51.064;7.014;2022-12-18T11:16:29;10.13;;;5.20;;
62058;SDS011;48017;51.064;7.014;2022-12-18T11:21:47;9.98;;;5.45;;
62058;SDS011;48017;51.064;7.014;2022-12-18T11:24:31;5.97;;;3.63;;
62058;SDS011;48017;51.064;7.014;2022-12-18T11:27:05;9.73;;;5.32;;
62058;SDS011;48017;51.064;7.014;2022-12-18T11:29:40;9.18;;;4.60;;
62058;SDS011;48017;51.064;7.014;2022-12-18T11:34:56;10.97;;;4.50;;
62058;SDS011;48017;51.064;7.014;2022-12-18T11:37:27;10.45;;;4.72;;
62058;SDS011;48017;51.064;7.014;2022-12-18T11:39:57;9.95;;;5.78;;
62058;SDS011;48017;51.064;7.014;2022-12-18T11:42:30;9.15;;;4.93;;
62058;SDS011;48017;51.064;7.014;2022-12-18T11:45:34;8.55;;;4.53;;
62058;SDS011;48017;51.064;7.014;2022-12-18T11:48:06;6.40;;;3.80;;
62058;SDS011;48017;51.064;7.014;2022-12-18T11:53:02;12.43;;;5.53;;
62058;SDS011;48017;51.064;7.014;2022-12-18T12:01:36;9.57;;;5.50;;
62058;SDS011;48017;51.064;7.014;2022-12-18T12:06:33;11.25;;;6.22;;
62058;SDS011;48017;51.064;7.014;2022-12-18T12:17:53;31.90;;;6.40;;
62058;SDS011;48017;51.064;7.014;2022-12-18T12:38:52;8.52;;;4.93;;
62058;SDS011;48017;51.064;7.014;2022-12-18T12:41:23;10.15;;;5.15;;
62058;SDS011;48017;51.064;7.014;2022-12-18T12:44:16;16.30;;;7.35;;
62058;SDS011;48017;51.064;7.014;2022-12-18T12:46:46;4.80;;;3.05;;
62058;SDS011;48017;51.064;7.014;2022-12-18T12:49:15;10.53;;;5.50;;
62058;SDS011;48017;51.064;7.014;2022-12-18T12:51:44;8.80;;;4.65;;
62058;SDS011;48017;51.064;7.014;2022-12-18T12:54:17;11.25;;;6.78;;
62058;SDS011;48017;51.064;7.014;2022-12-18T13:02:35;8.48;;;4.47;;
62058;SDS011;48017;51.064;7.014;2022-12-18T13:05:16;11.45;;;5.90;;
62058;SDS011;48017;51.064;7.014;2022-12-18T13:07:51;9.00;;;4.63;;
62058;SDS011;48017;51.064;7.014;2022-12-18T13:12:59;9.48;;;5.63;;
62058;SDS011;48017;51.064;7.014;2022-12-18T13:15:38;11.13;;;6.28;;
62058;SDS011;48017;51.064;7.014;2022-12-18T13:20:41;10.18;;;5.70;;
62058;SDS011;48017;51.064;7.014;2022-12-18T13:39:40;8.18;;;5.47;;
62058;SDS011;48017;51.064;7.014;2022-12-18T13:41:47;13.88;;;6.78;;
62058;SDS011;48017;51.064;7.014;2022-12-18T13:44:59;16.88;;;9.27;;
62058;SDS011;48017;51.064;7.014;2022-12-18T13:47:26;13.90;;;8.13;;
62058;SDS011;48017;51.064;7.014;2022-12-18T13:49:56;9.00;;;5.43;;
62058;SDS011;48017;51.064;7.014;2022-12-18T13:52:23;10.48;;;4.97;;
62058;SDS011;48017;51.064;7.014;2022-12-18T13:54:51;12.93;;;7.15;;
62058;SDS011;48017;51.064;7.014;2022-12-18T13:57:32;8.15;;;4.57;;
62058;SDS011;48017;51.064;7.014;2022-12-18T14:00:16;7.97;;;4.35;;
62058;SDS011;48017;51.064;7.014;2022-12-18T14:02:50;16.10;;;5.72;;
62058;SDS011;48017;51.064;7.014;2022-12-18T14:05:27;11.38;;;5.97;;
62058;SDS011;48017;51.064;7.014;2022-12-18T14:08:03;9.77;;;5.50;;
62058;SDS011;48017;51.064;7.014;2022-12-18T14:10:31;9.80;;;5.97;;
62058;SDS011;48017;51.064;7.014;2022-12-18T14:12:57;12.73;;;6.85;;
62058;SDS011;48017;51.064;7.014;2022-12-18T14:15:32;14.50;;;6.85;;
62058;SDS011;48017;51.064;7.014;2022-12-18T14:20:59;10.07;;;5.28;;
62058;SDS011;48017;51.064;7.014;2022-12-18T14:26:02;14.38;;;7.20;;
62058;SDS011;48017;51.064;7.014;2022-12-18T14:28:44;12.20;;;5.85;;
62058;SDS011;48017;51.064;7.014;2022-12-18T14:31:23;9.10;;;4.90;;
62058;SDS011;48017;51.064;7.014;2022-12-18T14:33:50;10.88;;;6.20;;
62058;SDS011;48017;51.064;7.014;2022-12-18T14:36:20;10.88;;;5.97;;
62058;SDS011;48017;51.064;7.014;2022-12-18T14:38:55;12.60;;;6.78;;
62058;SDS011;48017;51.064;7.014;2022-12-18T14:41:23;16.25;;;7.43;;
62058;SDS011;48017;51.064;7.014;2022-12-18T14:43:50;15.73;;;8.85;;
62058;SDS011;48017;51.064;7.014;2022-12-18T14:48:57;10.10;;;6.55;;
62058;SDS011;48017;51.064;7.014;2022-12-18T14:51:26;18.38;;;9.35;;
62058;SDS011;48017;51.064;7.014;2022-12-18T14:56:30;14.68;;;7.97;;
62058;SDS011;48017;51.064;7.014;2022-12-18T14:59:01;10.55;;;4.82;;
62058;SDS011;48017;51.064;7.014;2022-12-18T15:01:29;7.72;;;4.55;;
62058;SDS011;48017;51.064;7.014;2022-12-18T15:04:01;9.75;;;5.68;;
62058;SDS011;48017;51.064;7.014;2022-12-18T15:06:29;7.50;;;4.30;;
62058;SDS011;48017;51.064;7.014;2022-12-18T15:08:58;15.45;;;8.43;;
62058;SDS011;48017;51.064;7.014;2022-12-18T15:13:58;13.50;;;5.55;;
62058;SDS011;48017;51.064;7.014;2022-12-18T15:16:24;12.30;;;4.93;;
62058;SDS011;48017;51.064;7.014;2022-12-18T15:18:50;8.05;;;4.57;;
62058;SDS011;48017;51.064;7.014;2022-12-18T15:21:17;13.15;;;7.00;;
62058;SDS011;48017;51.064;7.014;2022-12-18T15:26:10;13.15;;;6.45;;
62058;SDS011;48017;51.064;7.014;2022-12-18T15:36:22;9.77;;;5.38;;
62058;SDS011;48017;51.064;7.014;2022-12-18T15:38:51;17.35;;;9.15;;
62058;SDS011;48017;51.064;7.014;2022-12-18T15:41:19;15.43;;;9.48;;
62058;SDS011;48017;51.064;7.014;2022-12-18T15:43:46;9.73;;;5.93;;
62058;SDS011;48017;51.064;7.014;2022-12-18T15:46:20;8.37;;;5.00;;
62058;SDS011;48017;51.064;7.014;2022-12-18T15:48:48;7.90;;;5.68;;
62058;SDS011;48017;51.064;7.014;2022-12-18T15:53:46;9.32;;;5.85;;
62058;SDS011;48017;51.064;7.014;2022-12-18T15:56:14;8.82;;;5.82;;
62058;SDS011;48017;51.064;7.014;2022-12-18T15:58:59;12.65;;;7.63;;
62058;SDS011;48017;51.064;7.014;2022-12-18T16:01:28;12.27;;;4.47;;
62058;SDS011;48017;51.064;7.014;2022-12-18T16:03:55;12.05;;;6.50;;
62058;SDS011;48017;51.064;7.014;2022-12-18T16:06:21;15.80;;;7.80;;
62058;SDS011;48017;51.064;7.014;2022-12-18T16:08:47;17.17;;;9.00;;
62058;SDS011;48017;51.064;7.014;2022-12-18T16:11:25;13.63;;;6.75;;
62058;SDS011;48017;51.064;7.014;2022-12-18T16:14:18;19.50;;;9.88;;
62058;SDS011;48017;51.064;7.014;2022-12-18T16:16:47;13.45;;;8.05;;
62058;SDS011;48017;51.064;7.014;2022-12-18T16:19:14;10.95;;;5.85;;
62058;SDS011;48017;51.064;7.014;2022-12-18T16:21:40;14.30;;;8.55;;
62058;SDS011;48017;51.064;7.014;2022-12-18T16:24:05;11.05;;;6.65;;
62058;SDS011;48017;51.064;7.014;2022-12-18T16:26:35;20.05;;;8.57;;
62058;SDS011;48017;51.064;7.014;2022-12-18T16:29:00;16.48;;;7.22;;
62058;SDS011;48017;51.064;7.014;2022-12-18T16:31:25;21.42;;;11.15;;
62058;SDS011;48017;51.064;7.014;2022-12-18T16:34:09;17.40;;;6.47;;
62058;SDS011;48017;51.064;7.014;2022-12-18T16:36:37;19.33;;;10.43;;
62058;SDS011;48017;51.064;7.014;2022-12-18T16:39:02;15.38;;;8.35;;
62058;SDS011;48017;51.064;7.014;2022-12-18T16:41:28;27.40;;;12.13;;
62058;SDS011;48017;51.064;7.014;2022-12-18T16:46:21;22.30;;;11.52;;
62058;SDS011;48017;51.064;7.014;2022-12-18T16:48:47;20.10;;;10.15;;
62058;SDS011;48017;51.064;7.014;2022-12-18T16:51:12;12.38;;;6.63;;
62058;SDS011;48017;51.064;7.014;2022-12-18T16:53:37;10.50;;;5.93;;
62058;SDS011;48017;51.064;7.014;2022-12-18T16:56:03;10.20;;;6.25;;
62058;SDS011;48017;51.064;7.014;2022-12-18T16:58:28;11.40;;;5.63;;
62058;SDS011;48017;51.064;7.014;2022-12-18T17:00:53;23.73;;;11.90;;
62058;SDS011;48017;51.064;7.014;2022-12-18T17:03:19;18.83;;;10.88;;
62058;SDS011;48017;51.064;7.014;2022-12-18T17:05:44;30.70;;;17.13;;